Time;durP1;ratioP1;P1;durP2;ratioP2;P2;SDS_P1;SDS_P2;PMS_P1;PMS_P2;Temp;Humidity;BMP_temperature;BMP_pressure;BME280_temperature;BME280_humidity;BME280_pressure;Samples;Min_cycle;Max_cycle;Signal;HPM_P1;HPM_P2
2023/01/04 00:00:18;;;;;;;13.15;5.57;;;;;;;9.81;58.50;102261.28;4945526;28;96874;-70
2023/01/04 00:02:44;;;;;;;12.23;6.50;;;;;;;9.78;58.42;102249.91;4950676;28;97661;-72
2023/01/04 00:05:11;;;;;;;12.35;6.50;;;;;;;9.73;58.89;102249.91;4951417;28;98854;-71
2023/01/04 00:07:38;;;;;;;13.40;7.03;;;;;;;9.62;58.94;102241.22;4952660;28;96674;-71
2023/01/04 00:10:05;;;;;;;13.23;5.95;;;;;;;9.75;58.94;102236.72;4949823;28;97769;-71
2023/01/04 00:12:32;;;;;;;12.07;5.43;;;;;;;9.59;58.98;102222.75;4952002;28;99179;-71
2023/01/04 00:14:58;;;;;;;10.00;5.85;;;;;;;9.53;59.35;102222.81;4950065;28;98831;-72
2023/01/04 00:17:25;;;;;;;10.23;5.25;;;;;;;9.40;59.83;102215.88;4951534;28;97259;-70
2023/01/04 00:19:51;;;;;;;13.68;5.72;;;;;;;9.53;59.59;102218.41;4950229;28;97444;-70
2023/01/04 00:22:18;;;;;;;12.95;5.88;;;;;;;9.67;59.11;102220.94;4950196;28;98941;-71
2023/01/04 00:24:45;;;;;;;9.75;5.47;;;;;;;9.81;58.59;102212.91;4944732;28;98166;-71
2023/01/04 00:27:12;;;;;;;10.40;5.68;;;;;;;9.75;58.43;102200.63;4948885;28;98702;-70
2023/01/04 00:29:38;;;;;;;10.60;6.50;;;;;;;9.72;58.73;102205.94;4948528;28;97278;-71
2023/01/04 00:32:05;;;;;;;9.93;5.55;;;;;;;9.80;58.93;102187.38;4948344;28;98928;-71
2023/01/04 00:34:31;;;;;;;7.15;5.32;;;;;;;9.81;58.48;102186.50;4946787;28;99277;-71
2023/01/04 00:36:58;;;;;;;10.27;5.00;;;;;;;9.63;59.12;102184.91;4946254;28;97030;-71
2023/01/04 00:39:24;;;;;;;10.52;5.43;;;;;;;9.56;59.23;102180.56;4949109;28;98975;-71
2023/01/04 00:42:03;;;;;;;8.82;5.88;;;;;;;9.78;59.08;102166.28;4943377;28;98835;-72
2023/01/04 00:44:31;;;;;;;8.95;5.40;;;;;;;9.76;58.75;102168.06;4944260;28;98962;-73
2023/01/04 00:46:59;;;;;;;10.55;5.75;;;;;;;9.62;59.29;102164.69;4949564;28;97661;-71
2023/01/04 00:49:26;;;;;;;8.32;5.43;;;;;;;9.66;59.56;102161.13;4947839;28;96931;-72
2023/01/04 00:51:53;;;;;;;8.82;5.45;;;;;;;9.54;59.52;102159.47;4949590;28;101241;-71
2023/01/04 00:54:20;;;;;;;8.10;5.78;;;;;;;9.65;59.59;102154.09;4949518;28;99121;-70
2023/01/04 00:56:47;;;;;;;10.18;6.35;;;;;;;9.77;58.79;102143.44;4950445;28;96714;-72
2023/01/04 00:59:17;;;;;;;8.48;5.28;;;;;;;9.76;58.71;102131.13;4952018;28;96983;-71
2023/01/04 01:01:44;;;;;;;7.20;4.68;;;;;;;9.75;58.88;102124.09;4949182;28;100609;-71
2023/01/04 01:04:13;;;;;;;9.80;4.95;;;;;;;9.76;58.89;102114.41;4951004;28;99319;-73
2023/01/04 01:06:40;;;;;;;8.85;4.90;;;;;;;9.85;58.36;102124.84;4942728;28;98251;-72
2023/01/04 01:09:06;;;;;;;11.18;5.00;;;;;;;9.73;59.05;102115.28;4946942;28;96847;-71
2023/01/04 01:11:35;;;;;;;8.63;4.90;;;;;;;9.68;59.02;102134.72;4947867;28;98165;-71
2023/01/04 01:14:02;;;;;;;9.38;4.63;;;;;;;9.82;58.68;102131.06;4945367;28;98829;-70
2023/01/04 01:16:30;;;;;;;9.10;4.72;;;;;;;9.67;58.98;102125.91;4946177;28;97174;-70
2023/01/04 01:18:56;;;;;;;7.00;4.45;;;;;;;9.73;58.91;102125.84;4948529;28;97352;-71
2023/01/04 01:21:24;;;;;;;8.77;5.00;;;;;;;9.72;58.57;102124.09;4948980;28;99158;-70
2023/01/04 01:23:51;;;;;;;8.18;4.55;;;;;;;10.02;58.02;102116.75;4945266;28;99231;-70
2023/01/04 01:26:20;;;;;;;8.55;4.25;;;;;;;9.89;58.31;102119.53;4945836;28;96772;-70
2023/01/04 01:28:47;;;;;;;5.60;4.35;;;;;;;9.84;58.34;102112.56;4950551;28;96919;-71
2023/01/04 01:31:16;;;;;;;6.60;4.22;;;;;;;9.82;58.23;102117.84;4947292;28;99315;-70
2023/01/04 01:33:46;;;;;;;5.15;3.67;;;;;;;9.76;58.45;102117.03;4947926;28;99267;-71
2023/01/04 01:36:14;;;;;;;12.00;4.55;;;;;;;9.68;58.82;102110.97;4944272;28;98007;-70
2023/01/04 01:38:42;;;;;;;6.18;4.25;;;;;;;9.60;59.14;102118.94;4948062;28;96924;-72
2023/01/04 01:41:17;;;;;;;7.95;4.55;;;;;;;9.63;59.05;102121.56;4947414;28;99078;-72
2023/01/04 01:43:53;;;;;;;6.50;4.03;;;;;;;9.79;58.64;102119.63;4957374;28;98984;-72
2023/01/04 01:46:25;;;;;;;5.95;3.53;;;;;;;9.65;58.46;102121.56;4947751;28;97693;-71
2023/01/04 01:48:58;;;;;;;8.70;3.85;;;;;;;9.53;59.18;102115.50;4951855;28;98151;-71
2023/01/04 01:51:24;;;;;;;9.05;4.00;;;;;;;9.62;58.37;102119.81;4952250;28;101681;-71
2023/01/04 01:53:58;;;;;;;5.95;4.07;;;;;;;9.81;57.91;102116.09;4952435;28;101373;-71
2023/01/04 01:56:30;;;;;;;8.27;4.30;;;;;;;9.94;57.64;102124.75;4948941;28;96766;-71
2023/01/04 01:58:59;;;;;;;7.18;4.50;;;;;;;9.77;57.71;102117.03;4947971;28;97309;-72
2023/01/04 02:01:27;;;;;;;5.60;3.97;;;;;;;9.72;57.76;102112.66;4949166;28;99362;-72
2023/01/04 02:03:56;;;;;;;6.72;3.90;;;;;;;9.71;57.98;102117.09;4953566;28;99252;-72
2023/01/04 02:06:27;;;;;;;6.22;3.85;;;;;;;9.62;58.28;102097.81;4951074;28;96754;-72
2023/01/04 02:08:54;;;;;;;6.72;3.60;;;;;;;9.69;57.95;102100.41;4952326;28;97856;-71
2023/01/04 02:11:21;;;;;;;7.28;3.95;;;;;;;9.50;58.25;102097.06;4952639;28;98700;-70
2023/01/04 02:16:45;;;;;;;5.57;3.28;;;;;;;9.67;57.71;102072.25;4950281;28;96939;-70
2023/01/04 02:19:32;;;;;;;13.00;3.92;;;;;;;9.72;57.69;102062.50;4952319;28;96747;-71
2023/01/04 02:22:23;;;;;;;6.40;3.83;;;;;;;9.73;57.41;102043.16;4950773;28;99220;-71
2023/01/04 02:25:10;;;;;;;8.07;4.20;;;;;;;9.64;57.59;102028.31;4950842;28;99543;-71
2023/01/04 02:27:48;;;;;;;8.95;4.32;;;;;;;9.42;58.03;102022.38;4949311;28;98820;-71
2023/01/04 02:30:58;;;;;;;7.68;4.68;;;;;;;9.33;58.58;102011.91;4945642;28;98850;-70
2023/01/04 02:33:40;;;;;;;5.95;3.65;;;;;;;9.29;58.32;102007.56;4944998;28;99198;-71
2023/01/04 02:36:13;;;;;;;7.72;4.18;;;;;;;9.22;58.72;102010.28;4943797;28;99105;-70
2023/01/04 02:38:48;;;;;;;6.63;4.20;;;;;;;9.36;58.25;102003.13;4950777;28;96792;-71
2023/01/04 02:41:21;;;;;;;6.97;4.47;;;;;;;9.29;58.32;101986.47;4949682;28;97674;-70
2023/01/04 02:46:43;;;;;;;8.73;4.25;;;;;;;9.23;58.50;101975.13;4950208;28;97139;-71
2023/01/04 02:51:55;;;;;;;8.43;4.03;;;;;;;8.99;58.74;101966.53;4946705;28;96884;-71
2023/01/04 02:54:26;;;;;;;9.32;4.68;;;;;;;8.99;58.97;101976.25;4947434;28;99848;-71
2023/01/04 02:57:08;;;;;;;8.73;4.55;;;;;;;8.95;59.37;101983.28;4950571;28;99540;-71
2023/01/04 02:59:55;;;;;;;7.32;4.18;;;;;;;9.10;58.91;101977.88;4947572;28;97031;-71
2023/01/04 03:08:26;;;;;;;;;;;;;;;9.07;59.16;101951.53;4945674;28;98507;-72
2023/01/04 03:10:59;;;;;;;5.82;4.25;;;;;;;9.15;58.90;101948.81;4950204;28;96896;-70
2023/01/04 03:13:28;;;;;;;6.63;3.60;;;;;;;9.17;58.88;101947.06;4948876;28;96719;-71
2023/01/04 03:16:05;;;;;;;6.32;4.05;;;;;;;9.14;58.58;101953.22;4949942;28;98994;-70
2023/01/04 03:18:36;;;;;;;10.73;4.78;;;;;;;9.24;58.68;101942.59;4948915;28;102694;-71
2023/01/04 03:21:05;;;;;;;9.18;4.22;;;;;;;9.08;58.83;101937.47;4948474;28;96866;-71
2023/01/04 03:43:08;;;;;;;10.05;4.97;;;;;;;8.84;59.55;101900.81;4898830;28;98705;-73
2023/01/04 03:49:13;;;;;;;5.65;3.95;;;;;;;9.01;59.40;101876.91;4947399;28;97192;-71
2023/01/04 03:51:40;;;;;;;12.73;5.45;;;;;;;9.06;59.23;101870.69;4949126;28;99131;-71
2023/01/04 03:54:13;;;;;;;9.32;4.00;;;;;;;8.97;59.33;101865.53;4952047;28;96756;-71
2023/01/04 03:56:42;;;;;;;7.18;3.97;;;;;;;9.02;59.07;101862.84;4950099;28;97908;-71
2023/01/04 03:59:09;;;;;;;8.88;4.30;;;;;;;8.93;59.64;101855.00;4949335;28;98985;-70
2023/01/04 04:01:36;;;;;;;7.32;3.63;;;;;;;8.88;59.96;101848.94;4949021;28;97903;-70
2023/01/04 04:09:34;;;;;;;10.73;4.28;;;;;;;8.92;59.51;101834.84;4942239;28;97194;-70
2023/01/04 04:12:00;;;;;;;4.97;3.97;;;;;;;8.91;59.48;101831.34;4944893;28;97606;-71
2023/01/04 04:14:27;;;;;;;5.72;4.10;;;;;;;8.90;59.76;101828.72;4948120;28;97553;-70
2023/01/04 04:16:55;;;;;;;6.53;3.80;;;;;;;8.68;60.17;101833.34;4949821;28;97000;-70
2023/01/04 04:19:21;;;;;;;5.47;3.75;;;;;;;8.98;59.40;101826.88;4946465;28;98880;-71
2023/01/04 04:21:48;;;;;;;6.53;3.90;;;;;;;8.98;59.21;101811.03;4947696;28;99105;-71
2023/01/04 04:24:17;;;;;;;11.90;6.13;;;;;;;8.97;59.06;101798.75;4944702;28;97569;-71
2023/01/04 04:26:45;;;;;;;6.82;4.15;;;;;;;8.71;59.76;101799.06;4947660;28;97683;-70
2023/01/04 04:29:12;;;;;;;8.88;4.07;;;;;;;8.80;59.90;101794.53;4948900;28;99465;-70
2023/01/04 04:31:38;;;;;;;8.15;4.20;;;;;;;8.86;59.54;101784.84;4948057;28;101320;-71
2023/01/04 04:34:05;;;;;;;6.65;4.18;;;;;;;8.99;59.33;101776.72;4943845;28;99104;-69
2023/01/04 04:36:31;;;;;;;7.40;4.40;;;;;;;8.82;60.02;101777.84;4944585;28;96834;-71
2023/01/04 04:38:57;;;;;;;8.63;3.97;;;;;;;8.97;59.41;101773.25;4943291;28;99220;-71
2023/01/04 04:41:38;;;;;;;10.30;5.05;;;;;;;9.07;59.15;101769.59;4950879;28;99050;-71
2023/01/04 04:44:07;;;;;;;9.27;4.07;;;;;;;8.97;59.39;101757.44;4950043;28;96711;-71
2023/01/04 04:46:33;;;;;;;9.02;3.97;;;;;;;9.09;59.24;101741.47;4949605;28;98746;-70
2023/01/04 04:48:59;;;;;;;6.40;4.38;;;;;;;9.02;59.24;101729.25;4950314;28;98992;-71
2023/01/04 04:51:26;;;;;;;7.05;4.50;;;;;;;9.05;59.15;101717.81;4947231;28;99511;-70
2023/01/04 04:53:52;;;;;;;5.30;3.92;;;;;;;8.99;59.25;101713.47;4948503;28;96812;-70
2023/01/04 04:56:19;;;;;;;8.27;4.18;;;;;;;8.99;59.63;101702.91;4948008;28;96919;-71
2023/01/04 04:58:45;;;;;;;10.43;4.25;;;;;;;8.94;60.04;101714.41;4950209;28;99261;-71
2023/01/04 05:01:13;;;;;;;14.05;4.47;;;;;;;8.96;59.81;101702.97;4945219;28;102122;-71
2023/01/04 05:03:40;;;;;;;7.50;4.28;;;;;;;8.91;59.88;101702.19;4948336;28;97611;-72
2023/01/04 05:06:07;;;;;;;5.10;4.18;;;;;;;8.88;60.13;101689.03;4946677;28;96829;-70
2023/01/04 05:08:33;;;;;;;9.15;4.63;;;;;;;8.97;59.82;101677.50;4942414;28;97827;-71
2023/01/04 05:11:00;;;;;;;6.50;3.65;;;;;;;9.05;59.62;101689.69;4941398;28;99053;-71
2023/01/04 05:13:25;;;;;;;6.38;3.80;;;;;;;9.12;59.35;101682.56;4945437;28;97100;-71
2023/01/04 05:15:54;;;;;;;;;;;;;;;9.04;59.66;101674.75;4949509;28;98063;-71
2023/01/04 05:18:22;;;;;;;6.13;3.60;;;;;;;9.10;59.58;101666.75;4948537;28;99366;-72
2023/01/04 05:20:50;;;;;;;8.23;3.97;;;;;;;9.19;59.28;101665.72;4950073;28;98800;-71
2023/01/04 05:23:18;;;;;;;8.23;4.03;;;;;;;9.27;59.46;101657.69;4950691;28;96796;-73
2023/01/04 05:25:45;;;;;;;10.85;4.03;;;;;;;9.28;59.01;101648.88;4951227;28;97342;-71
2023/01/04 05:28:11;;;;;;;7.13;3.65;;;;;;;9.34;59.25;101641.75;4945213;28;97763;-71
2023/01/04 05:30:49;;;;;;;7.32;3.90;;;;;;;9.33;59.38;101640.00;4947294;28;99046;-71
2023/01/04 05:33:16;;;;;;;4.20;3.25;;;;;;;9.40;58.94;101631.09;4946726;28;96868;-72
2023/01/04 05:35:44;;;;;;;7.30;3.42;;;;;;;9.37;58.98;101625.88;4946260;28;96762;-70
2023/01/04 05:38:10;;;;;;;8.70;3.38;;;;;;;9.36;59.27;101615.34;4943068;28;99551;-71
2023/01/04 05:40:37;;;;;;;7.15;4.80;;;;;;;9.42;59.17;101605.56;4947502;28;100339;-71
2023/01/04 05:43:03;;;;;;;7.30;3.85;;;;;;;9.31;59.52;101588.19;4944242;28;96803;-71
2023/01/04 05:45:29;;;;;;;8.98;3.83;;;;;;;9.27;59.75;101590.00;4946662;28;97589;-72
2023/01/04 05:47:56;;;;;;;5.97;3.33;;;;;;;9.50;59.20;101586.97;4947084;28;98882;-70
2023/01/04 05:50:24;;;;;;;10.93;4.25;;;;;;;9.33;59.55;101583.75;4945903;28;98572;-70
2023/01/04 05:52:52;;;;;;;4.80;3.78;;;;;;;9.25;59.79;101577.75;4950844;28;97111;-70
2023/01/04 05:55:18;;;;;;;6.97;2.95;;;;;;;9.35;59.39;101566.13;4946013;28;97550;-71
2023/01/04 05:57:45;;;;;;;5.97;3.08;;;;;;;9.27;59.68;101554.84;4948510;28;99465;-70
2023/01/04 06:00:12;;;;;;;6.95;3.30;;;;;;;9.31;59.63;101569.72;4949208;28;99223;-71
2023/01/04 06:02:40;;;;;;;7.93;3.45;;;;;;;9.56;59.22;101561.34;4946664;28;99452;-70
2023/01/04 06:05:08;;;;;;;7.15;3.35;;;;;;;9.63;58.66;101554.19;4946176;28;96988;-73
2023/01/04 06:07:35;;;;;;;6.50;3.55;;;;;;;9.61;58.61;101553.34;4943726;28;98516;-72
2023/01/04 06:10:03;;;;;;;9.20;4.18;;;;;;;9.61;59.02;101534.88;4946261;28;97603;-70
2023/01/04 06:12:30;;;;;;;5.63;3.17;;;;;;;9.59;59.03;101537.53;4945389;28;96726;-71
2023/01/04 06:14:56;;;;;;;4.10;3.10;;;;;;;9.42;59.54;101533.47;4944834;28;97740;-71
2023/01/04 06:17:22;;;;;;;10.30;3.13;;;;;;;9.35;59.76;101532.72;4946202;28;98581;-70
2023/01/04 06:19:49;;;;;;;5.25;3.10;;;;;;;9.41;59.84;101529.97;4947159;28;101062;-72
2023/01/04 06:22:15;;;;;;;5.18;3.35;;;;;;;9.48;59.50;101520.16;4946999;28;97128;-71
2023/01/04 06:24:42;;;;;;;8.30;3.28;;;;;;;9.72;58.79;101511.78;4942867;28;97168;-71
2023/01/04 06:27:09;;;;;;;8.52;2.88;;;;;;;9.55;59.08;101512.13;4946530;28;99149;-71
2023/01/04 06:29:36;;;;;;;6.05;2.58;;;;;;;9.66;58.75;101505.75;4948748;28;99026;-71
2023/01/04 06:32:02;;;;;;;3.80;2.75;;;;;;;9.62;58.73;101499.66;4948911;28;98776;-71
2023/01/04 06:34:28;;;;;;;6.95;2.95;;;;;;;9.58;59.16;101498.84;4949420;28;97542;-71
2023/01/04 06:36:55;;;;;;;5.95;2.90;;;;;;;9.81;58.36;101484.34;4946563;28;98612;-71
2023/01/04 06:39:21;;;;;;;6.53;2.40;;;;;;;9.73;58.54;101480.97;4946308;28;98173;-72
2023/01/04 06:41:48;;;;;;;4.22;2.20;;;;;;;9.86;58.31;101475.41;4950903;28;96768;-72
2023/01/04 06:44:15;;;;;;;6.72;3.38;;;;;;;9.94;58.05;101468.22;4951487;28;97195;-71
2023/01/04 06:46:42;;;;;;;6.20;2.40;;;;;;;9.99;57.64;101463.69;4948969;28;99083;-72
2023/01/04 06:49:09;;;;;;;3.70;2.15;;;;;;;9.99;57.20;101465.47;4950476;28;99600;-72
2023/01/04 06:51:35;;;;;;;6.85;2.60;;;;;;;10.15;57.04;101456.31;4952641;28;96814;-72
2023/01/04 06:54:02;;;;;;;2.53;1.92;;;;;;;10.13;57.08;101450.19;4951731;28;96958;-72
2023/01/04 06:56:29;;;;;;;5.85;2.40;;;;;;;10.25;57.09;101451.69;4949565;28;99256;-72
2023/01/04 06:58:56;;;;;;;6.70;2.15;;;;;;;10.18;56.88;101442.19;4947919;28;97707;-70
2023/01/04 07:01:24;;;;;;;7.05;2.13;;;;;;;10.28;56.34;101438.44;4948433;28;98711;-71
2023/01/04 07:03:50;;;;;;;5.05;2.30;;;;;;;10.41;56.56;101439.88;4954459;28;97030;-71
2023/01/04 07:06:16;;;;;;;4.65;2.35;;;;;;;10.18;56.87;101436.91;4945424;28;99205;-70
2023/01/04 07:08:43;;;;;;;4.72;2.25;;;;;;;10.48;56.42;101428.28;4945358;28;98803;-70
2023/01/04 07:11:09;;;;;;;3.63;2.05;;;;;;;10.43;56.00;101431.94;4946827;28;96867;-71
2023/01/04 07:13:36;;;;;;;8.13;1.90;;;;;;;10.52;55.53;101436.97;4947063;28;97514;-71
2023/01/04 07:16:02;;;;;;;4.82;1.75;;;;;;;10.64;55.67;101421.69;4953561;28;101160;-71
2023/01/04 07:18:30;;;;;;;4.82;1.92;;;;;;;10.73;55.87;101416.19;4948129;28;98782;-72
2023/01/04 07:20:56;;;;;;;2.80;2.10;;;;;;;10.51;56.91;101420.25;4953140;28;97512;-70
2023/01/04 07:23:23;;;;;;;4.80;2.10;;;;;;;10.50;57.88;101407.94;4950724;28;96870;-72
2023/01/04 07:25:49;;;;;;;5.10;2.28;;;;;;;10.24;58.56;101394.53;4947411;28;98922;-71
2023/01/04 07:29:13;;;;;;;4.03;1.77;;;;;;;10.15;59.80;101395.56;4949261;28;99351;-71
2023/01/04 07:31:06;;;;;;;;;;;;;;;10.13;60.83;101401.78;4951914;28;97626;-73
2023/01/04 07:33:34;;;;;;;6.88;2.10;;;;;;;10.13;61.03;101393.84;4951179;28;96910;-71
2023/01/04 07:36:05;;;;;;;7.55;2.15;;;;;;;10.25;61.04;101386.53;4948605;28;98921;-72
2023/01/04 07:38:33;;;;;;;4.57;1.70;;;;;;;10.24;61.09;101383.97;4944448;28;98884;-72
2023/01/04 07:41:00;;;;;;;7.07;2.53;;;;;;;10.30;61.69;101384.69;4951691;28;97174;-71
2023/01/04 07:43:26;;;;;;;3.92;2.20;;;;;;;10.35;61.35;101385.44;4948360;28;96872;-71
2023/01/04 07:45:53;;;;;;;4.28;2.08;;;;;;;10.29;62.36;101374.16;4945126;28;99129;-71
2023/01/04 07:48:19;;;;;;;5.68;1.70;;;;;;;10.27;62.42;101357.47;4946927;28;98757;-72
2023/01/04 07:50:47;;;;;;;3.25;1.67;;;;;;;10.13;63.26;101364.81;4943995;28;97657;-72
2023/01/04 07:53:13;;;;;;;2.92;1.73;;;;;;;10.13;63.96;101360.41;4948668;28;97910;-74
2023/01/04 07:55:40;;;;;;;6.15;2.08;;;;;;;10.22;63.54;101343.50;4942039;28;98929;-72
2023/01/04 07:58:06;;;;;;;6.68;2.08;;;;;;;10.31;63.94;101338.84;4943603;28;98880;-73
2023/01/04 08:00:33;;;;;;;6.82;2.00;;;;;;;10.28;63.79;101332.78;4940706;28;97420;-72
2023/01/04 08:02:59;;;;;;;5.60;1.90;;;;;;;10.33;64.52;101331.75;4945265;28;96914;-72
2023/01/04 08:05:26;;;;;;;5.90;1.60;;;;;;;10.42;64.17;101313.94;4945773;28;97799;-73
2023/01/04 08:07:54;;;;;;;2.88;1.50;;;;;;;10.53;63.93;101315.38;4944751;28;99296;-73
2023/01/04 08:10:20;;;;;;;3.00;1.80;;;;;;;10.32;65.29;101315.94;4943197;28;97183;-73
2023/01/04 08:12:47;;;;;;;8.45;2.25;;;;;;;10.32;65.50;101305.38;4945173;28;97340;-74
2023/01/04 08:15:14;;;;;;;6.57;2.30;;;;;;;10.47;65.22;101297.06;4947832;28;96929;-72
2023/01/04 08:17:40;;;;;;;3.35;1.63;;;;;;;10.15;66.27;101289.06;4945573;28;98784;-72
2023/01/04 08:20:08;;;;;;;5.22;1.80;;;;;;;10.12;67.11;101284.72;4945889;28;98489;-71
2023/01/04 08:22:34;;;;;;;8.23;1.73;;;;;;;10.12;67.54;101283.84;4947541;28;97506;-72
2023/01/04 08:25:02;;;;;;;5.40;1.80;;;;;;;10.22;66.87;101277.47;4947453;28;99022;-72
2023/01/04 08:27:29;;;;;;;2.13;1.83;;;;;;;10.04;68.01;101276.13;4946598;28;98887;-73
2023/01/04 08:29:55;;;;;;;5.63;1.85;;;;;;;10.06;67.93;101279.59;4944640;28;97633;-71
2023/01/04 08:32:22;;;;;;;4.22;1.90;;;;;;;10.14;68.26;101282.03;4946180;28;98755;-71
2023/01/04 08:34:48;;;;;;;4.35;1.80;;;;;;;10.11;68.60;101282.13;4946641;28;97632;-72
2023/01/04 08:37:14;;;;;;;4.22;2.10;;;;;;;10.03;68.84;101281.44;4941336;28;98857;-72
2023/01/04 08:39:41;;;;;;;5.57;1.83;;;;;;;9.95;69.48;101277.22;4943899;28;97724;-71
2023/01/04 08:42:09;;;;;;;5.13;2.05;;;;;;;9.97;69.83;101272.78;4944294;28;97941;-71
2023/01/04 08:44:35;;;;;;;5.28;1.80;;;;;;;10.25;68.83;101266.81;4945423;28;99421;-71
2023/01/04 08:47:02;;;;;;;6.57;2.08;;;;;;;10.36;68.74;101257.72;4944059;28;99412;-71
2023/01/04 08:49:29;;;;;;;2.58;1.80;;;;;;;10.35;68.57;101256.00;4941984;28;98517;-72
2023/01/04 08:51:55;;;;;;;7.03;1.73;;;;;;;10.19;69.07;101259.06;4933531;28;97853;-71
2023/01/04 08:54:22;;;;;;;6.90;1.63;;;;;;;9.99;69.96;101268.31;4936194;28;101106;-71
2023/01/04 08:56:49;;;;;;;8.90;1.98;;;;;;;10.35;69.64;101261.28;4931579;28;99387;-71
2023/01/04 08:59:16;;;;;;;7.50;2.03;;;;;;;10.47;69.36;101269.75;4934433;28;104814;-72
2023/01/04 09:01:43;;;;;;;4.97;1.85;;;;;;;10.47;69.53;101256.56;4932615;28;99181;-71
2023/01/04 09:04:09;;;;;;;6.50;1.98;;;;;;;10.71;68.68;101266.44;4931217;28;99157;-72
2023/01/04 09:06:37;;;;;;;8.63;2.85;;;;;;;10.57;69.16;101264.19;4935490;28;100972;-71
2023/01/04 09:09:04;;;;;;;5.30;2.13;;;;;;;10.72;68.93;101269.06;4929102;28;98183;-71
2023/01/04 09:11:30;;;;;;;5.10;2.08;;;;;;;10.84;68.57;101265.19;4937037;28;99830;-71
2023/01/04 09:13:58;;;;;;;6.15;2.20;;;;;;;10.60;69.44;101244.75;4945743;28;98998;-71
2023/01/04 09:16:25;;;;;;;6.03;1.90;;;;;;;10.62;69.04;101242.94;4946409;28;98801;-71
2023/01/04 09:18:52;;;;;;;5.68;2.10;;;;;;;10.71;69.47;101240.88;4937291;28;97340;-71
2023/01/04 09:21:20;;;;;;;4.07;2.03;;;;;;;10.60;69.73;101240.31;4934125;28;99369;-71
2023/01/04 09:23:47;;;;;;;4.65;2.58;;;;;;;10.63;70.38;101236.75;4933596;28;99351;-71
2023/01/04 09:26:16;;;;;;;8.43;3.58;;;;;;;10.65;69.95;101230.50;4938130;28;99611;-71
2023/01/04 09:28:43;;;;;;;7.43;2.45;;;;;;;10.81;69.60;101235.34;4939147;28;97248;-71
2023/01/04 09:31:11;;;;;;;4.43;1.92;;;;;;;10.44;70.28;101214.34;4937034;28;98435;-73
2023/01/04 09:33:39;;;;;;;6.05;2.08;;;;;;;10.53;70.31;101214.13;4937427;28;98793;-72
2023/01/04 09:36:07;;;;;;;5.03;2.22;;;;;;;10.65;70.24;101206.69;4942720;28;99308;-71
2023/01/04 09:38:35;;;;;;;9.73;2.30;;;;;;;10.76;69.88;101203.78;4938048;28;97918;-71
2023/01/04 09:41:10;;;;;;;4.90;2.28;;;;;;;10.68;69.88;101193.41;4949818;28;96922;-71
2023/01/04 09:43:45;;;;;;;6.53;2.50;;;;;;;10.71;69.91;101185.38;4945562;28;99223;-73
2023/01/04 09:46:21;;;;;;;6.80;2.50;;;;;;;10.84;70.25;101188.53;4948144;28;99054;-73
2023/01/04 09:48:53;;;;;;;5.87;3.47;;;;;;;10.72;69.82;101181.84;4943893;28;97143;-72
2023/01/04 09:51:21;;;;;;;3.63;2.40;;;;;;;10.86;69.94;101177.91;4946512;28;97244;-72
2023/01/04 09:53:54;;;;;;;7.70;2.22;;;;;;;10.81;70.08;101170.13;4942569;28;98957;-71
2023/01/04 09:56:26;;;;;;;4.38;2.55;;;;;;;10.75;70.53;101168.53;4948541;28;99547;-71
2023/01/04 09:58:54;;;;;;;6.20;2.70;;;;;;;10.78;70.32;101159.63;4945545;28;97188;-72
2023/01/04 10:01:23;;;;;;;6.00;2.80;;;;;;;10.51;71.73;101166.59;4945160;28;97427;-72
2023/01/04 10:03:59;;;;;;;4.28;2.25;;;;;;;10.26;72.70;101149.69;4946376;28;98980;-71
2023/01/04 10:06:26;;;;;;;3.35;1.95;;;;;;;10.52;72.54;101149.81;4948306;28;98068;-71
2023/01/04 10:08:52;;;;;;;3.55;2.42;;;;;;;10.74;71.97;101150.06;4945154;28;97433;-71
2023/01/04 10:11:39;;;;;;;6.47;2.63;;;;;;;10.72;70.89;101133.38;4949878;28;97811;-71
2023/01/04 10:14:28;;;;;;;6.25;2.65;;;;;;;10.76;71.16;101140.34;4947058;28;99066;-70
2023/01/04 10:17:08;;;;;;;4.47;2.85;;;;;;;10.58;71.87;101125.88;4947135;28;99005;-72
2023/01/04 10:19:50;;;;;;;4.57;2.17;;;;;;;10.70;72.00;101125.50;4948872;28;97375;-71
2023/01/04 10:22:22;;;;;;;7.43;2.88;;;;;;;10.70;72.22;101114.91;4950624;28;96946;-73
2023/01/04 10:25:00;;;;;;;11.65;3.00;;;;;;;10.79;71.61;101093.50;4945734;28;101997;-72
2023/01/04 10:27:34;;;;;;;5.47;2.97;;;;;;;10.55;72.19;101093.41;4950521;28;98731;-70
2023/01/04 10:30:15;;;;;;;4.85;2.58;;;;;;;10.63;72.12;101092.22;4949443;28;97504;-73
2023/01/04 10:32:44;;;;;;;5.38;2.50;;;;;;;10.78;71.97;101089.13;4948940;28;96866;-72
2023/01/04 10:35:20;;;;;;;4.35;1.98;;;;;;;10.81;71.82;101079.38;4946959;28;98966;-72
2023/01/04 10:37:49;;;;;;;5.45;2.60;;;;;;;10.64;72.67;101072.81;4943191;28;98879;-71
2023/01/04 10:40:18;;;;;;;6.03;2.67;;;;;;;10.83;71.73;101072.28;4948172;28;97977;-72
2023/01/04 10:42:53;;;;;;;6.85;2.92;;;;;;;10.93;71.43;101064.00;4949578;28;98787;-72
2023/01/04 10:45:30;;;;;;;6.38;2.78;;;;;;;10.83;72.16;101061.72;4947761;28;97806;-71
2023/01/04 10:48:04;;;;;;;6.25;2.90;;;;;;;10.79;71.95;101059.16;4948966;28;99456;-70
2023/01/04 10:50:39;;;;;;;6.75;2.95;;;;;;;11.04;71.53;101045.13;4951582;28;96843;-71
2023/01/04 10:53:13;;;;;;;5.63;2.73;;;;;;;10.98;71.36;101045.34;4949319;28;98839;-72
2023/01/04 10:55:45;;;;;;;10.35;3.10;;;;;;;10.91;71.57;101041.16;4947333;28;100801;-70
2023/01/04 10:58:19;;;;;;;5.57;2.40;;;;;;;10.69;71.92;101031.28;4944055;28;100346;-71
2023/01/04 11:00:50;;;;;;;7.63;4.03;;;;;;;10.89;72.09;101029.78;4950149;28;97051;-71
2023/01/04 11:03:21;;;;;;;6.38;3.17;;;;;;;11.01;71.39;101016.16;4947474;28;97764;-72
2023/01/04 11:05:52;;;;;;;4.22;2.50;;;;;;;11.01;71.16;101026.75;4950517;28;98818;-71
2023/01/04 11:08:23;;;;;;;6.57;3.00;;;;;;;11.06;70.93;101011.56;4945264;28;98814;-73
2023/01/04 11:10:53;;;;;;;5.45;2.40;;;;;;;11.13;70.42;101013.09;4948739;28;98555;-72
2023/01/04 11:13:20;;;;;;;4.10;2.38;;;;;;;11.23;70.16;101003.94;4945410;28;97297;-72
2023/01/04 11:15:47;;;;;;;3.95;2.35;;;;;;;11.24;69.98;100991.56;4948348;28;99194;-71
2023/01/04 11:18:15;;;;;;;4.80;2.40;;;;;;;11.31;69.44;100995.75;4938119;28;99171;-72
2023/01/04 11:20:42;;;;;;;7.80;2.58;;;;;;;11.43;69.24;100990.88;4947007;28;98063;-73
2023/01/04 11:23:14;;;;;;;5.18;2.75;;;;;;;11.42;69.24;100989.16;4943842;28;99513;-72
2023/01/04 11:25:54;;;;;;;4.38;2.55;;;;;;;11.39;69.71;100991.91;4942876;28;98002;-72
2023/01/04 11:28:25;;;;;;;7.30;2.75;;;;;;;11.37;69.78;100984.94;4950034;28;99322;-72
2023/01/04 11:30:58;;;;;;;2.83;2.20;;;;;;;11.33;69.79;100978.03;4923473;28;98013;-74
2023/01/04 11:33:25;;;;;;;3.63;2.28;;;;;;;11.59;69.47;100977.97;4934634;28;98052;-73
2023/01/04 11:35:55;;;;;;;3.90;2.35;;;;;;;11.40;69.49;100982.19;4934669;28;98749;-71
2023/01/04 11:38:26;;;;;;;6.03;2.50;;;;;;;11.54;69.46;100980.81;4927846;28;98799;-72
2023/01/04 11:40:59;;;;;;;3.28;1.92;;;;;;;11.60;69.42;100977.06;4943407;28;98129;-72
2023/01/04 11:43:27;;;;;;;4.18;2.33;;;;;;;11.50;69.92;100963.28;4943718;28;97970;-72
2023/01/04 11:46:02;;;;;;;3.38;1.90;;;;;;;11.40;70.67;100967.19;4944135;28;98973;-78
2023/01/04 11:48:34;;;;;;;5.78;2.10;;;;;;;11.41;70.89;100954.81;4944894;28;99234;-70
2023/01/04 11:51:01;;;;;;;4.47;2.08;;;;;;;11.62;70.51;100954.03;4946828;28;97855;-71
2023/01/04 11:53:32;;;;;;;4.63;2.10;;;;;;;11.73;69.84;100941.28;4941819;28;98667;-72
2023/01/04 11:56:10;;;;;;;3.63;2.20;;;;;;;11.72;69.88;100939.56;4948127;28;98949;-71
2023/01/04 11:58:36;;;;;;;4.03;1.77;;;;;;;11.93;69.41;100922.91;4947074;28;99544;-72
2023/01/04 12:01:03;;;;;;;5.63;2.00;;;;;;;11.94;69.14;100931.72;4936898;28;98679;-71
2023/01/04 12:03:32;;;;;;;4.28;2.25;;;;;;;11.70;69.88;100917.56;4936785;28;97231;-71
2023/01/04 12:05:59;;;;;;;2.60;2.00;;;;;;;11.69;70.29;100912.31;4946226;28;102120;-71
2023/01/04 12:08:31;;;;;;;4.25;2.00;;;;;;;11.64;70.62;100907.19;4935206;28;99206;-70
2023/01/04 12:10:58;;;;;;;3.63;1.73;;;;;;;11.79;70.19;100917.25;4941714;28;97858;-71
2023/01/04 12:13:25;;;;;;;4.18;1.77;;;;;;;11.85;70.08;100911.72;4948836;28;97995;-71
2023/01/04 12:16:03;;;;;;;2.75;2.10;;;;;;;11.91;69.54;100900.91;4943755;28;100225;-71
2023/01/04 12:18:34;;;;;;;6.43;1.83;;;;;;;11.94;69.90;100902.59;4944808;28;98811;-70
2023/01/04 12:21:01;;;;;;;2.67;1.80;;;;;;;11.88;70.17;100902.81;4946900;28;96793;-71